B1112 ZUGH-ZUGH
Flight info
| Callsign | B1112 |
|---|---|
| Flight time | 0h 1m |
| Altitude | FL030 |
| Route | LOCAL |
| Aircraft | C172/L-SDE2E3FGHIRWXY/LB1 |
Departure
| Time | 2026-05-08 08:38 |
|---|---|
| Airport | Guanghan Airport (ZUGH) |
Arrival
| Time | 2026-05-08 08:39 |
|---|---|
| Airport | Guanghan Airport (ZUGH) |
| Time | Latitude | Longitude | Altitude | Speed | Heading |
|---|---|---|---|---|---|
| 2026-05-08 08:30 | 30.94709 | 104.32777 | 1540 ft | 0 kts | 39° |
| 2026-05-08 08:31 | 30.94722 | 104.32789 | 1541 ft | 6 kts | 33° |
| 2026-05-08 08:31 | 30.94749 | 104.32779 | 1541 ft | 5 kts | 303° |
| 2026-05-08 08:31 | 30.94793 | 104.32711 | 1538 ft | 18 kts | 307° |
| 2026-05-08 08:31 | 30.94862 | 104.32602 | 1538 ft | 16 kts | 307° |
| 2026-05-08 08:32 | 30.94926 | 104.32500 | 1537 ft | 15 kts | 304° |
| 2026-05-08 08:32 | 30.94987 | 104.32405 | 1542 ft | 14 kts | 310° |
| 2026-05-08 08:32 | 30.95043 | 104.32313 | 1540 ft | 14 kts | 306° |
| 2026-05-08 08:32 | 30.95097 | 104.32228 | 1541 ft | 12 kts | 304° |
| 2026-05-08 08:33 | 30.95147 | 104.32148 | 1541 ft | 12 kts | 307° |
| 2026-05-08 08:33 | 30.95196 | 104.32074 | 1540 ft | 11 kts | 316° |
| 2026-05-08 08:33 | 30.95260 | 104.32046 | 1543 ft | 9 kts | 355° |
| 2026-05-08 08:33 | 30.95314 | 104.32038 | 1544 ft | 7 kts | 349° |
| 2026-05-08 08:34 | 30.95355 | 104.32030 | 1543 ft | 6 kts | 354° |
| 2026-05-08 08:34 | 30.95398 | 104.32064 | 1545 ft | 7 kts | 92° |
| 2026-05-08 08:34 | 30.95393 | 104.32097 | 1541 ft | 2 kts | 139° |
| 2026-05-08 08:34 | 30.95391 | 104.32098 | 1542 ft | 0 kts | 138° |
| 2026-05-08 08:35 | 30.95384 | 104.32108 | 1544 ft | 1 kts | 126° |
| 2026-05-08 08:35 | 30.95383 | 104.32108 | 1544 ft | 0 kts | 127° |
| 2026-05-08 08:35 | 30.95359 | 104.32153 | 1545 ft | 25 kts | 127° |
| 2026-05-08 08:36 | 30.95177 | 104.32459 | 1547 ft | 63 kts | 119° |
| 2026-05-08 08:36 | 30.94858 | 104.32919 | 1657 ft | 75 kts | 120° |
| 2026-05-08 08:36 | 30.94512 | 104.33495 | 1691 ft | 82 kts | 126° |
| 2026-05-08 08:36 | 30.94118 | 104.34100 | 1717 ft | 100 kts | 122° |
| 2026-05-08 08:37 | 30.93680 | 104.34782 | 1770 ft | 108 kts | 123° |
| 2026-05-08 08:37 | 30.93226 | 104.35445 | 1897 ft | 101 kts | 124° |
| 2026-05-08 08:37 | 30.92825 | 104.36100 | 2039 ft | 103 kts | 111° |
| 2026-05-08 08:37 | 30.92824 | 104.36933 | 2050 ft | 110 kts | 68° |
| 2026-05-08 08:38 | 30.93400 | 104.37533 | 2141 ft | 119 kts | 14° |
| 2026-05-08 08:38 | 30.94060 | 104.37094 | 2247 ft | 129 kts | 282° |
| 2026-05-08 08:38 | 30.93804 | 104.36066 | 2202 ft | 134 kts | 237° |
| 2026-05-08 08:38 | 30.93507 | 104.35240 | 2007 ft | 103 kts | 298° |
| 2026-05-08 08:39 | 30.93838 | 104.34521 | 1802 ft | 106 kts | 304° |
| 2026-05-08 08:39 | 30.94249 | 104.33912 | 1622 ft | 87 kts | 312° |
| 2026-05-08 08:39 | 30.94562 | 104.33427 | 1540 ft | 65 kts | 309° |
| 2026-05-08 08:39 | 30.94775 | 104.33104 | 1545 ft | 41 kts | 311° |
| 2026-05-08 08:40 | 30.95016 | 104.32718 | 1544 ft | 68 kts | 313° |
| 2026-05-08 08:40 | 30.95341 | 104.32196 | 1621 ft | 86 kts | 316° |
| 2026-05-08 08:40 | 30.95902 | 104.31888 | 1665 ft | 101 kts | 337° |
| 2026-05-08 08:40 | 30.96096 | 104.31165 | 1716 ft | 115 kts | 215° |
| 2026-05-08 08:41 | 30.95624 | 104.31500 | 1879 ft | 107 kts | 112° |
| 2026-05-08 08:41 | 30.95214 | 104.32363 | 1585 ft | 131 kts | 127° |
| 2026-05-08 08:41 | 30.94754 | 104.33098 | 1951 ft | 99 kts | 122° |
| 2026-05-08 08:41 | 30.94407 | 104.33854 | 1954 ft | 112 kts | 117° |
| 2026-05-08 08:42 | 30.94101 | 104.34649 | 2314 ft | 99 kts | 109° |
| 2026-05-08 08:42 | 30.93804 | 104.35481 | 2131 ft | 128 kts | 112° |
| 2026-05-08 08:42 | 30.93282 | 104.36263 | 2349 ft | 117 kts | 133° |
| 2026-05-08 08:42 | 30.92601 | 104.36809 | 2455 ft | 120 kts | 144° |
| 2026-05-08 08:43 | 30.91982 | 104.37453 | 2544 ft | 120 kts | 127° |
| 2026-05-08 08:43 | 30.91486 | 104.38215 | 2663 ft | 116 kts | 119° |
| 2026-05-08 08:43 | 30.91159 | 104.39069 | 2638 ft | 120 kts | 114° |
| 2026-05-08 08:43 | 30.90635 | 104.39885 | 2630 ft | 123 kts | 128° |
| 2026-05-08 08:44 | 30.90116 | 104.40652 | 2665 ft | 123 kts | 123° |
| 2026-05-08 08:44 | 30.89578 | 104.41455 | 2554 ft | 127 kts | 129° |
| 2026-05-08 08:44 | 30.88816 | 104.41993 | 2488 ft | 132 kts | 158° |
| 2026-05-08 08:44 | 30.88010 | 104.42386 | 2468 ft | 124 kts | 142° |
| 2026-05-08 08:45 | 30.87347 | 104.43084 | 2176 ft | 132 kts | 131° |
| 2026-05-08 08:45 | 30.86851 | 104.43866 | 2322 ft | 115 kts | 118° |
| 2026-05-08 08:45 | 30.86703 | 104.44774 | 2141 ft | 123 kts | 88° |
| 2026-05-08 08:45 | 30.86918 | 104.45752 | 1984 ft | 128 kts | 90° |
| 2026-05-08 08:46 | 30.86369 | 104.45692 | 2283 ft | 126 kts | 266° |
| 2026-05-08 08:46 | 30.86976 | 104.45371 | 2391 ft | 117 kts | 30° |
| 2026-05-08 08:46 | 30.87285 | 104.46158 | 2329 ft | 119 kts | 108° |
| 2026-05-08 08:46 | 30.86626 | 104.46741 | 2323 ft | 133 kts | 165° |
| 2026-05-08 08:47 | 30.85699 | 104.46418 | 2139 ft | 149 kts | 210° |
| 2026-05-08 08:47 | 30.84761 | 104.46063 | 1980 ft | 142 kts | 165° |
| 2026-05-08 08:47 | 30.84027 | 104.45729 | 2056 ft | 140 kts | 302° |
| 2026-05-08 08:47 | 30.84742 | 104.45379 | 2062 ft | 126 kts | 24° |
| 2026-05-08 08:48 | 30.85564 | 104.45854 | 1751 ft | 140 kts | 14° |
| 2026-05-08 08:48 | 30.86485 | 104.45710 | 1789 ft | 135 kts | 338° |
| 2026-05-08 08:48 | 30.87050 | 104.46046 | 1950 ft | 100 kts | 95° |
| 2026-05-08 08:48 | 30.86517 | 104.46129 | 2198 ft | 118 kts | 227° |
| 2026-05-08 08:49 | 30.85893 | 104.45394 | 1919 ft | 127 kts | 216° |
| 2026-05-08 08:49 | 30.85203 | 104.44807 | 1900 ft | 133 kts | 208° |
| 2026-05-08 08:49 | 30.84376 | 104.44211 | 1787 ft | 130 kts | 210° |
| 2026-05-08 08:49 | 30.83563 | 104.44140 | 1776 ft | 118 kts | 150° |
| 2026-05-08 08:50 | 30.83302 | 104.44922 | 1653 ft | 115 kts | 84° |
| 2026-05-08 08:50 | 30.83500 | 104.45752 | 1805 ft | 106 kts | 24° |
| 2026-05-08 08:50 | 30.84190 | 104.45320 | 1599 ft | 134 kts | 324° |
| 2026-05-08 08:50 | 30.84967 | 104.44916 | 1671 ft | 128 kts | 1° |
| 2026-05-08 08:51 | 30.85669 | 104.45377 | 1636 ft | 118 kts | 90° |
| 2026-05-08 08:51 | 30.85580 | 104.46183 | 1870 ft | 107 kts | 96° |
| 2026-05-08 08:51 | 30.85445 | 104.46947 | 2357 ft | 85 kts | 115° |
| 2026-05-08 08:51 | 30.85093 | 104.47488 | 2339 ft | 98 kts | 158° |
| 2026-05-08 08:52 | 30.84759 | 104.46944 | 2053 ft | 123 kts | 330° |
| 2026-05-08 08:52 | 30.85482 | 104.46500 | 2107 ft | 126 kts | 335° |
| 2026-05-08 08:52 | 30.86342 | 104.46065 | 1797 ft | 147 kts | 349° |
| 2026-05-08 08:52 | 30.86704 | 104.46220 | 2061 ft | 101 kts | 217° |
| 2026-05-08 08:53 | 30.86536 | 104.45938 | 1542 ft | 0 kts | 252° |
| 2026-05-08 08:53 | 30.86536 | 104.45939 | 1614 ft | 0 kts | 259° |
| 2026-05-08 08:53 | 30.86562 | 104.45427 | 1516 ft | 11 kts | 34° |
| 2026-05-08 08:53 | 30.86564 | 104.45428 | 1964 ft | 0 kts | 8° |
| 2026-05-08 08:54 | 30.86600 | 104.45434 | 4579 ft | 128 kts | 17° |
| 2026-05-08 08:54 | 30.87040 | 104.45925 | 4059 ft | 105 kts | 168° |
| 2026-05-08 08:54 | 30.86719 | 104.45524 | 2977 ft | 126 kts | 272° |
| 2026-05-08 08:54 | 30.87114 | 104.44442 | 2631 ft | 95 kts | 319° |
| 2026-05-08 08:55 | 30.87742 | 104.43826 | 1860 ft | 143 kts | 348° |
| 2026-05-08 08:55 | 30.88179 | 104.44377 | 1714 ft | 122 kts | 137° |
| 2026-05-08 08:55 | 30.87440 | 104.44611 | 2045 ft | 92 kts | 152° |
| 2026-05-08 08:55 | 30.87059 | 104.45200 | 1984 ft | 98 kts | 101° |
| 2026-05-08 08:56 | 30.87079 | 104.45868 | 1630 ft | 69 kts | 77° |
| 2026-05-08 08:56 | 30.87127 | 104.45998 | 1524 ft | 0 kts | 240° |
| 2026-05-08 08:56 | 30.87134 | 104.46000 | 1524 ft | 6 kts | 102° |
| 2026-05-08 08:57 | 30.86972 | 104.46047 | 1524 ft | 50 kts | 180° |
| 2026-05-08 08:57 | 30.86934 | 104.46046 | 1667 ft | 0 kts | 159° |
| 2026-05-08 08:57 | 30.86796 | 104.46105 | 10032 ft | 131 kts | 161° |
| 2026-05-08 08:58 | 30.86071 | 104.46505 | 8083 ft | 189 kts | 131° |
| 2026-05-08 08:58 | 30.85604 | 104.46518 | 7933 ft | 55 kts | 289° |
| 2026-05-08 08:58 | 30.86057 | 104.47170 | 4934 ft | 18 kts | 91° |
| 2026-05-08 08:58 | 30.85143 | 104.47615 | 4141 ft | 89 kts | 119° |
| 2026-05-08 08:59 | 30.84957 | 104.48098 | 3008 ft | 131 kts | 141° |
| 2026-05-08 08:59 | 30.84508 | 104.47725 | 3358 ft | 115 kts | 278° |
| 2026-05-08 08:59 | 30.85045 | 104.46889 | 3225 ft | 135 kts | 320° |
| 2026-05-08 08:59 | 30.85840 | 104.46262 | 2951 ft | 145 kts | 360° |
| 2026-05-08 09:00 | 30.86892 | 104.46283 | 2470 ft | 147 kts | 9° |
| 2026-05-08 09:00 | 30.87326 | 104.45528 | 2613 ft | 135 kts | 209° |
| 2026-05-08 09:00 | 30.86483 | 104.45850 | 2290 ft | 128 kts | 136° |
| 2026-05-08 09:00 | 30.86692 | 104.46406 | 2603 ft | 92 kts | 8° |
| 2026-05-08 09:01 | 30.87280 | 104.45806 | 1825 ft | 148 kts | 289° |
| 2026-05-08 09:01 | 30.87083 | 104.44867 | 2090 ft | 122 kts | 188° |
| 2026-05-08 09:01 | 30.86586 | 104.45465 | 2007 ft | 124 kts | 101° |
| 2026-05-08 09:01 | 30.85923 | 104.45872 | 1943 ft | 121 kts | 186° |
| 2026-05-08 09:02 | 30.85305 | 104.46221 | 1994 ft | 112 kts | 93° |
| 2026-05-08 09:02 | 30.85869 | 104.46301 | 2131 ft | 135 kts | 312° |
| 2026-05-08 09:02 | 30.86025 | 104.45184 | 1822 ft | 141 kts | 257° |
| 2026-05-08 09:02 | 30.85969 | 104.44025 | 1623 ft | 140 kts | 277° |
| 2026-05-08 09:03 | 30.85759 | 104.43001 | 1881 ft | 121 kts | 253° |
| 2026-05-08 09:03 | 30.85552 | 104.41970 | 1691 ft | 145 kts | 268° |
| 2026-05-08 09:03 | 30.85680 | 104.40945 | 2073 ft | 99 kts | 275° |
| 2026-05-08 09:03 | 30.85283 | 104.40605 | 2118 ft | 88 kts | 99° |
| 2026-05-08 09:04 | 30.85482 | 104.41387 | 1803 ft | 118 kts | 73° |
| 2026-05-08 09:04 | 30.85129 | 104.42179 | 1569 ft | 123 kts | 157° |
| 2026-05-08 09:04 | 30.84809 | 104.42754 | 1750 ft | 93 kts | 40° |
| 2026-05-08 09:04 | 30.85248 | 104.43229 | 1754 ft | 75 kts | 73° |
| 2026-05-08 09:05 | 30.85236 | 104.43452 | 1474 ft | 0 kts | 264° |
| 2026-05-08 09:05 | 30.85247 | 104.43425 | 1467 ft | 8 kts | 333° |
| 2026-05-08 09:05 | 30.85223 | 104.43471 | 1468 ft | 10 kts | 137° |
| 2026-05-08 09:05 | 30.85189 | 104.43458 | 1468 ft | 9 kts | 255° |
| 2026-05-08 09:06 | 30.85163 | 104.43396 | 1474 ft | 0 kts | 231° |
| 2026-05-08 09:06 | 30.84982 | 104.43127 | 1863 ft | 119 kts | 244° |
| 2026-05-08 09:06 | 30.85458 | 104.42931 | 1623 ft | 91 kts | 37° |
| 2026-05-08 09:06 | 30.85301 | 104.43411 | 1475 ft | 37 kts | 31° |
| 2026-05-08 09:07 | 30.85462 | 104.43516 | 1633 ft | 117 kts | 32° |
| 2026-05-08 09:07 | 30.85836 | 104.43976 | 1793 ft | 74 kts | 136° |
| 2026-05-08 09:07 | 30.85220 | 104.44142 | 1561 ft | 97 kts | 163° |
| 2026-05-08 09:07 | 30.84571 | 104.44303 | 1534 ft | 91 kts | 169° |
| 2026-05-08 09:08 | 30.83985 | 104.44478 | 1554 ft | 79 kts | 133° |
| 2026-05-08 09:08 | 30.84068 | 104.44955 | 1533 ft | 77 kts | 19° |
| 2026-05-08 09:08 | 30.84446 | 104.44542 | 1468 ft | 80 kts | 325° |
| 2026-05-08 09:08 | 30.84571 | 104.44491 | 1547 ft | 0 kts | 27° |
| 2026-05-08 09:09 | 30.85172 | 104.44730 | 1764 ft | 105 kts | 355° |
| 2026-05-08 09:09 | 30.85427 | 104.44138 | 1704 ft | 101 kts | 210° |
| 2026-05-08 09:09 | 30.84798 | 104.44267 | 1515 ft | 97 kts | 159° |
| 2026-05-08 09:09 | 30.84434 | 104.44431 | 1455 ft | 0 kts | 355° |
| 2026-05-08 09:10 | 30.84977 | 104.44409 | 1593 ft | 108 kts | 16° |
| 2026-05-08 09:10 | 30.85405 | 104.44210 | 1459 ft | 3 kts | 81° |
| 2026-05-08 09:10 | 30.85400 | 104.44239 | 1462 ft | 6 kts | 110° |
| 2026-05-08 09:10 | 30.85347 | 104.44266 | 1475 ft | 18 kts | 168° |
| 2026-05-08 09:11 | 30.85153 | 104.44318 | 1471 ft | 37 kts | 157° |
| 2026-05-08 09:11 | 30.84998 | 104.44352 | 1504 ft | 0 kts | 10° |
| 2026-05-08 09:11 | 30.85548 | 104.44311 | 1722 ft | 95 kts | 325° |
| 2026-05-08 09:11 | 30.85297 | 104.44046 | 1541 ft | 86 kts | 163° |
| 2026-05-08 09:12 | 30.84766 | 104.44058 | 1593 ft | 78 kts | 156° |
| 2026-05-08 09:12 | 30.84452 | 104.44208 | 1459 ft | 0 kts | 143° |
| 2026-05-08 09:12 | 30.84426 | 104.44235 | 1458 ft | 23 kts | 139° |
| 2026-05-08 09:12 | 30.84277 | 104.44371 | 1455 ft | 9 kts | 100° |
| 2026-05-08 09:13 | 30.84317 | 104.44376 | 1454 ft | 11 kts | 355° |
| 2026-05-08 09:13 | 30.84343 | 104.44344 | 1454 ft | 5 kts | 297° |
| 2026-05-08 09:13 | 30.84374 | 104.44303 | 1454 ft | 10 kts | 324° |
| 2026-05-08 09:13 | 30.84435 | 104.44292 | 1457 ft | 8 kts | 4° |
| 2026-05-08 09:14 | 30.84439 | 104.44293 | 1457 ft | 0 kts | 5° |
| 2026-05-08 09:15 | 30.84452 | 104.44295 | 1458 ft | 14 kts | 14° |
| 2026-05-08 09:16 | 30.84486 | 104.44311 | 1453 ft | 0 kts | 224° |
| 2026-05-08 09:16 | 30.84453 | 104.44255 | 1460 ft | 24 kts | 224° |
| 2026-05-08 09:16 | 30.84209 | 104.44198 | 1472 ft | 54 kts | 164° |
| 2026-05-08 09:16 | 30.84293 | 104.44298 | 1652 ft | 118 kts | 31° |
| 2026-05-08 09:17 | 30.85070 | 104.44256 | 1573 ft | 114 kts | 334° |
| 2026-05-08 09:17 | 30.85702 | 104.43935 | 1728 ft | 84 kts | 357° |
| 2026-05-08 09:17 | 30.86290 | 104.43957 | 1696 ft | 85 kts | 15° |
| 2026-05-08 09:17 | 30.86879 | 104.43727 | 1528 ft | 106 kts | 315° |
| 2026-05-08 09:18 | 30.87370 | 104.43126 | 1488 ft | 99 kts | 321° |
| 2026-05-08 09:18 | 30.87837 | 104.42802 | 1469 ft | 5 kts | 185° |
| 2026-05-08 09:18 | 30.87809 | 104.42803 | 1906 ft | 125 kts | 173° |
| 2026-05-08 09:18 | 30.87157 | 104.42331 | 1641 ft | 133 kts | 283° |
| 2026-05-08 09:19 | 30.87769 | 104.42117 | 1707 ft | 101 kts | 2° |
| 2026-05-08 09:19 | 30.88468 | 104.41990 | 1644 ft | 99 kts | 353° |
| 2026-05-08 09:19 | 30.89139 | 104.41979 | 1566 ft | 93 kts | 4° |
| 2026-05-08 09:19 | 30.89680 | 104.41765 | 1517 ft | 101 kts | 289° |
| 2026-05-08 09:20 | 30.89809 | 104.41069 | 1563 ft | 79 kts | 322° |
| 2026-05-08 09:20 | 30.90303 | 104.40847 | 1538 ft | 66 kts | 27° |
| 2026-05-08 09:20 | 30.90779 | 104.40668 | 1480 ft | 81 kts | 333° |
| 2026-05-08 09:20 | 30.91098 | 104.40370 | 1483 ft | 29 kts | 303° |
| 2026-05-08 09:21 | 30.91287 | 104.40178 | 1487 ft | 45 kts | 308° |
| 2026-05-08 09:21 | 30.91511 | 104.39861 | 1488 ft | 30 kts | 229° |
| 2026-05-08 09:22 | 30.92794 | 104.39066 | 1820 ft | 99 kts | 302° |
| 2026-05-08 09:23 | 30.93204 | 104.38407 | 1827 ft | 85 kts | 313° |
| 2026-05-08 09:23 | 30.93507 | 104.37881 | 1791 ft | 87 kts | 318° |
| 2026-05-08 09:23 | 30.93967 | 104.37365 | 1690 ft | 94 kts | 322° |
| 2026-05-08 09:23 | 30.94470 | 104.36919 | 1675 ft | 91 kts | 330° |
| 2026-05-08 09:24 | 30.94913 | 104.36378 | 1544 ft | 105 kts | 303° |
| 2026-05-08 09:24 | 30.95271 | 104.35678 | 1555 ft | 97 kts | 312° |
| 2026-05-08 09:24 | 30.95739 | 104.35180 | 1580 ft | 90 kts | 331° |
| 2026-05-08 09:24 | 30.96266 | 104.34781 | 1574 ft | 86 kts | 342° |
| 2026-05-08 09:25 | 30.96425 | 104.34207 | 1553 ft | 88 kts | 233° |
| 2026-05-08 09:25 | 30.96263 | 104.33571 | 1554 ft | 88 kts | 285° |
| 2026-05-08 09:25 | 30.96564 | 104.33004 | 1553 ft | 82 kts | 308° |
| 2026-05-08 09:25 | 30.96852 | 104.32453 | 1600 ft | 74 kts | 287° |
| 2026-05-08 09:26 | 30.96862 | 104.32203 | 1556 ft | 0 kts | 147° |
| 2026-05-08 09:26 | 30.96472 | 104.32024 | 1774 ft | 100 kts | 259° |
| 2026-05-08 09:26 | 30.96241 | 104.31301 | 1749 ft | 81 kts | 193° |
| 2026-05-08 09:26 | 30.95782 | 104.31457 | 1641 ft | 63 kts | 137° |
| 2026-05-08 09:27 | 30.95559 | 104.31825 | 1587 ft | 54 kts | 120° |
| 2026-05-08 09:27 | 30.95352 | 104.32186 | 1551 ft | 57 kts | 122° |
| 2026-05-08 09:27 | 30.95167 | 104.32458 | 1548 ft | 24 kts | 139° |
| 2026-05-08 09:27 | 30.95039 | 104.32404 | 1543 ft | 21 kts | 219° |
| 2026-05-08 09:28 | 30.94961 | 104.32441 | 1538 ft | 12 kts | 124° |
| 2026-05-08 09:28 | 30.94925 | 104.32502 | 1540 ft | 10 kts | 130° |
| 2026-05-08 09:28 | 30.94903 | 104.32537 | 1538 ft | 0 kts | 132° |
| 2026-05-08 09:29 | 30.94894 | 104.32551 | 1539 ft | 10 kts | 124° |
| 2026-05-08 09:29 | 30.94827 | 104.32660 | 1538 ft | 19 kts | 127° |
| 2026-05-08 09:29 | 30.94755 | 104.32775 | 1537 ft | 16 kts | 121° |
| 2026-05-08 09:30 | 30.94677 | 104.32799 | 1541 ft | 21 kts | 145° |
| 2026-05-08 09:30 | 30.94649 | 104.32855 | 1541 ft | 3 kts | 21° |
| 2026-05-08 09:30 | 30.94662 | 104.32863 | 1541 ft | 0 kts | 36° |